sensor_id;sensor_type;location;lat;lon;timestamp;P1;durP1;ratioP1;P2;durP2;ratioP2
21777;SDS011;11050;52.222;20.916;2024-01-30T00:01:55;56.47;;;25.70;;
21777;SDS011;11050;52.222;20.916;2024-01-30T00:04:21;54.77;;;25.57;;
21777;SDS011;11050;52.222;20.916;2024-01-30T00:06:46;56.90;;;25.60;;
21777;SDS011;11050;52.222;20.916;2024-01-30T00:09:12;52.63;;;23.53;;
21777;SDS011;11050;52.222;20.916;2024-01-30T00:11:39;59.57;;;26.67;;
21777;SDS011;11050;52.222;20.916;2024-01-30T00:14:04;60.20;;;24.47;;
21777;SDS011;11050;52.222;20.916;2024-01-30T00:16:31;52.77;;;22.47;;
21777;SDS011;11050;52.222;20.916;2024-01-30T00:18:57;47.23;;;22.23;;
21777;SDS011;11050;52.222;20.916;2024-01-30T00:21:23;56.17;;;23.97;;
21777;SDS011;11050;52.222;20.916;2024-01-30T00:23:50;61.07;;;24.90;;
21777;SDS011;11050;52.222;20.916;2024-01-30T00:26:16;55.00;;;24.53;;
21777;SDS011;11050;52.222;20.916;2024-01-30T00:28:41;56.90;;;24.87;;
21777;SDS011;11050;52.222;20.916;2024-01-30T00:31:08;52.10;;;24.23;;
21777;SDS011;11050;52.222;20.916;2024-01-30T00:33:38;57.13;;;25.73;;
21777;SDS011;11050;52.222;20.916;2024-01-30T00:36:05;57.20;;;24.93;;
21777;SDS011;11050;52.222;20.916;2024-01-30T00:38:31;54.20;;;24.50;;
21777;SDS011;11050;52.222;20.916;2024-01-30T00:40:57;54.37;;;24.90;;
21777;SDS011;11050;52.222;20.916;2024-01-30T00:43:23;57.10;;;24.70;;
21777;SDS011;11050;52.222;20.916;2024-01-30T00:45:52;55.27;;;23.27;;
21777;SDS011;11050;52.222;20.916;2024-01-30T00:48:19;57.20;;;24.53;;
21777;SDS011;11050;52.222;20.916;2024-01-30T00:50:45;52.53;;;23.83;;
21777;SDS011;11050;52.222;20.916;2024-01-30T00:53:11;48.20;;;23.43;;
21777;SDS011;11050;52.222;20.916;2024-01-30T00:55:36;54.33;;;24.07;;
21777;SDS011;11050;52.222;20.916;2024-01-30T00:58:02;48.43;;;23.13;;
21777;SDS011;11050;52.222;20.916;2024-01-30T01:00:28;49.47;;;23.30;;
21777;SDS011;11050;52.222;20.916;2024-01-30T01:02:55;53.43;;;23.63;;
21777;SDS011;11050;52.222;20.916;2024-01-30T01:05:20;52.20;;;23.73;;
21777;SDS011;11050;52.222;20.916;2024-01-30T01:07:46;55.20;;;24.43;;
21777;SDS011;11050;52.222;20.916;2024-01-30T01:10:13;53.70;;;23.63;;
21777;SDS011;11050;52.222;20.916;2024-01-30T01:12:41;52.63;;;23.10;;
21777;SDS011;11050;52.222;20.916;2024-01-30T01:15:07;57.00;;;23.87;;
21777;SDS011;11050;52.222;20.916;2024-01-30T01:17:37;47.30;;;23.30;;
21777;SDS011;11050;52.222;20.916;2024-01-30T01:20:03;50.87;;;23.07;;
21777;SDS011;11050;52.222;20.916;2024-01-30T01:22:33;48.30;;;23.37;;
21777;SDS011;11050;52.222;20.916;2024-01-30T01:24:59;50.43;;;22.43;;
21777;SDS011;11050;52.222;20.916;2024-01-30T01:27:26;53.47;;;23.83;;
21777;SDS011;11050;52.222;20.916;2024-01-30T01:29:52;51.50;;;22.47;;
21777;SDS011;11050;52.222;20.916;2024-01-30T01:32:18;50.23;;;24.10;;
21777;SDS011;11050;52.222;20.916;2024-01-30T01:34:44;54.10;;;24.00;;
21777;SDS011;11050;52.222;20.916;2024-01-30T01:37:10;53.50;;;24.33;;
21777;SDS011;11050;52.222;20.916;2024-01-30T01:39:36;49.57;;;23.33;;
21777;SDS011;11050;52.222;20.916;2024-01-30T01:42:02;52.23;;;24.87;;
21777;SDS011;11050;52.222;20.916;2024-01-30T01:44:28;50.93;;;24.73;;
21777;SDS011;11050;52.222;20.916;2024-01-30T01:46:54;51.30;;;23.17;;
21777;SDS011;11050;52.222;20.916;2024-01-30T01:49:22;52.50;;;23.37;;
21777;SDS011;11050;52.222;20.916;2024-01-30T01:51:50;52.97;;;23.73;;
21777;SDS011;11050;52.222;20.916;2024-01-30T01:54:21;52.60;;;23.07;;
21777;SDS011;11050;52.222;20.916;2024-01-30T01:56:50;53.90;;;24.70;;
21777;SDS011;11050;52.222;20.916;2024-01-30T01:59:17;53.37;;;22.57;;
21777;SDS011;11050;52.222;20.916;2024-01-30T02:01:45;52.70;;;24.50;;
21777;SDS011;11050;52.222;20.916;2024-01-30T02:04:14;47.33;;;22.27;;
21777;SDS011;11050;52.222;20.916;2024-01-30T02:06:41;51.40;;;23.40;;
21777;SDS011;11050;52.222;20.916;2024-01-30T02:09:08;49.60;;;22.40;;
21777;SDS011;11050;52.222;20.916;2024-01-30T02:11:34;53.17;;;23.77;;
21777;SDS011;11050;52.222;20.916;2024-01-30T02:14:04;51.43;;;22.40;;
21777;SDS011;11050;52.222;20.916;2024-01-30T02:16:30;50.77;;;23.70;;
21777;SDS011;11050;52.222;20.916;2024-01-30T02:18:57;49.60;;;22.60;;
21777;SDS011;11050;52.222;20.916;2024-01-30T02:21:22;51.63;;;23.53;;
21777;SDS011;11050;52.222;20.916;2024-01-30T02:23:49;53.57;;;23.63;;
21777;SDS011;11050;52.222;20.916;2024-01-30T02:26:17;55.70;;;22.60;;
21777;SDS011;11050;52.222;20.916;2024-01-30T02:28:43;50.40;;;22.90;;
21777;SDS011;11050;52.222;20.916;2024-01-30T02:31:08;46.97;;;22.33;;
21777;SDS011;11050;52.222;20.916;2024-01-30T02:33:34;50.43;;;24.73;;
21777;SDS011;11050;52.222;20.916;2024-01-30T02:36:00;49.73;;;23.67;;
21777;SDS011;11050;52.222;20.916;2024-01-30T02:38:26;54.13;;;24.53;;
21777;SDS011;11050;52.222;20.916;2024-01-30T02:40:52;52.30;;;22.90;;
21777;SDS011;11050;52.222;20.916;2024-01-30T02:43:18;52.87;;;23.37;;
21777;SDS011;11050;52.222;20.916;2024-01-30T02:45:44;50.70;;;23.03;;
21777;SDS011;11050;52.222;20.916;2024-01-30T02:48:10;41.83;;;21.70;;
21777;SDS011;11050;52.222;20.916;2024-01-30T02:50:35;50.40;;;21.80;;
21777;SDS011;11050;52.222;20.916;2024-01-30T02:53:01;49.37;;;21.90;;
21777;SDS011;11050;52.222;20.916;2024-01-30T02:55:27;52.00;;;22.93;;
21777;SDS011;11050;52.222;20.916;2024-01-30T02:57:52;47.27;;;20.67;;
21777;SDS011;11050;52.222;20.916;2024-01-30T03:00:19;53.27;;;22.17;;
21777;SDS011;11050;52.222;20.916;2024-01-30T03:02:45;48.40;;;22.33;;
21777;SDS011;11050;52.222;20.916;2024-01-30T03:05:11;51.50;;;21.80;;
21777;SDS011;11050;52.222;20.916;2024-01-30T03:07:37;52.73;;;22.03;;
21777;SDS011;11050;52.222;20.916;2024-01-30T03:10:04;55.27;;;22.13;;
21777;SDS011;11050;52.222;20.916;2024-01-30T03:12:31;48.73;;;20.97;;
21777;SDS011;11050;52.222;20.916;2024-01-30T03:14:57;48.40;;;22.30;;
21777;SDS011;11050;52.222;20.916;2024-01-30T03:17:23;49.07;;;21.73;;
21777;SDS011;11050;52.222;20.916;2024-01-30T03:19:49;49.93;;;22.50;;
21777;SDS011;11050;52.222;20.916;2024-01-30T03:22:15;50.47;;;21.77;;
21777;SDS011;11050;52.222;20.916;2024-01-30T03:24:41;46.67;;;22.10;;
21777;SDS011;11050;52.222;20.916;2024-01-30T03:27:07;48.43;;;21.27;;
21777;SDS011;11050;52.222;20.916;2024-01-30T03:29:33;46.13;;;19.47;;
21777;SDS011;11050;52.222;20.916;2024-01-30T03:31:59;50.43;;;21.43;;
21777;SDS011;11050;52.222;20.916;2024-01-30T03:34:25;47.70;;;20.27;;
21777;SDS011;11050;52.222;20.916;2024-01-30T03:36:51;47.60;;;21.03;;
21777;SDS011;11050;52.222;20.916;2024-01-30T03:39:16;46.30;;;21.10;;
21777;SDS011;11050;52.222;20.916;2024-01-30T03:41:42;48.60;;;22.43;;
21777;SDS011;11050;52.222;20.916;2024-01-30T03:44:09;48.10;;;20.83;;
21777;SDS011;11050;52.222;20.916;2024-01-30T03:46:35;48.03;;;21.07;;
21777;SDS011;11050;52.222;20.916;2024-01-30T03:49:01;46.80;;;20.43;;
21777;SDS011;11050;52.222;20.916;2024-01-30T03:51:27;44.73;;;20.20;;
21777;SDS011;11050;52.222;20.916;2024-01-30T03:53:53;48.97;;;21.00;;
21777;SDS011;11050;52.222;20.916;2024-01-30T03:56:19;50.13;;;23.47;;
21777;SDS011;11050;52.222;20.916;2024-01-30T03:58:44;45.97;;;20.83;;
21777;SDS011;11050;52.222;20.916;2024-01-30T04:01:13;41.93;;;21.40;;
21777;SDS011;11050;52.222;20.916;2024-01-30T04:03:40;47.27;;;21.27;;
21777;SDS011;11050;52.222;20.916;2024-01-30T04:06:06;40.13;;;19.97;;
21777;SDS011;11050;52.222;20.916;2024-01-30T04:08:32;48.53;;;21.53;;
21777;SDS011;11050;52.222;20.916;2024-01-30T04:10:57;46.03;;;20.97;;
21777;SDS011;11050;52.222;20.916;2024-01-30T04:13:23;48.93;;;21.40;;
21777;SDS011;11050;52.222;20.916;2024-01-30T04:15:49;48.63;;;21.70;;
21777;SDS011;11050;52.222;20.916;2024-01-30T04:18:14;47.63;;;22.07;;
21777;SDS011;11050;52.222;20.916;2024-01-30T04:20:40;47.40;;;21.23;;
21777;SDS011;11050;52.222;20.916;2024-01-30T04:23:06;52.47;;;21.00;;
21777;SDS011;11050;52.222;20.916;2024-01-30T04:25:31;47.63;;;21.80;;
21777;SDS011;11050;52.222;20.916;2024-01-30T04:27:57;47.57;;;22.03;;
21777;SDS011;11050;52.222;20.916;2024-01-30T04:30:23;43.07;;;20.33;;
21777;SDS011;11050;52.222;20.916;2024-01-30T04:32:49;43.87;;;20.87;;
21777;SDS011;11050;52.222;20.916;2024-01-30T04:35:14;43.17;;;20.27;;
21777;SDS011;11050;52.222;20.916;2024-01-30T04:37:40;45.93;;;20.47;;
21777;SDS011;11050;52.222;20.916;2024-01-30T04:40:06;46.20;;;20.27;;
21777;SDS011;11050;52.222;20.916;2024-01-30T04:42:33;48.30;;;21.07;;
21777;SDS011;11050;52.222;20.916;2024-01-30T04:44:59;43.97;;;20.23;;
21777;SDS011;11050;52.222;20.916;2024-01-30T04:47:24;45.10;;;20.83;;
21777;SDS011;11050;52.222;20.916;2024-01-30T04:49:51;42.23;;;19.57;;
21777;SDS011;11050;52.222;20.916;2024-01-30T04:52:17;44.27;;;21.73;;
21777;SDS011;11050;52.222;20.916;2024-01-30T04:54:42;45.60;;;21.37;;
21777;SDS011;11050;52.222;20.916;2024-01-30T04:57:08;43.80;;;19.57;;
21777;SDS011;11050;52.222;20.916;2024-01-30T04:59:37;44.37;;;20.23;;
21777;SDS011;11050;52.222;20.916;2024-01-30T05:02:02;51.33;;;21.77;;
21777;SDS011;11050;52.222;20.916;2024-01-30T05:04:29;44.10;;;19.57;;
21777;SDS011;11050;52.222;20.916;2024-01-30T05:06:54;43.13;;;20.47;;
21777;SDS011;11050;52.222;20.916;2024-01-30T05:09:20;45.77;;;20.63;;
21777;SDS011;11050;52.222;20.916;2024-01-30T05:11:46;46.33;;;21.20;;
21777;SDS011;11050;52.222;20.916;2024-01-30T05:14:12;39.53;;;19.87;;
21777;SDS011;11050;52.222;20.916;2024-01-30T05:16:40;49.17;;;20.23;;
21777;SDS011;11050;52.222;20.916;2024-01-30T05:19:06;48.23;;;20.90;;
21777;SDS011;11050;52.222;20.916;2024-01-30T05:21:32;47.00;;;21.07;;
21777;SDS011;11050;52.222;20.916;2024-01-30T05:23:58;42.43;;;20.43;;
21777;SDS011;11050;52.222;20.916;2024-01-30T05:26:23;45.93;;;20.30;;
21777;SDS011;11050;52.222;20.916;2024-01-30T05:28:49;46.47;;;19.60;;
21777;SDS011;11050;52.222;20.916;2024-01-30T05:31:15;39.27;;;19.33;;
21777;SDS011;11050;52.222;20.916;2024-01-30T05:33:41;41.17;;;21.13;;
21777;SDS011;11050;52.222;20.916;2024-01-30T05:36:06;44.80;;;21.10;;
21777;SDS011;11050;52.222;20.916;2024-01-30T05:38:32;46.07;;;20.73;;
21777;SDS011;11050;52.222;20.916;2024-01-30T05:40:58;47.03;;;20.57;;
21777;SDS011;11050;52.222;20.916;2024-01-30T05:43:24;40.17;;;19.93;;
21777;SDS011;11050;52.222;20.916;2024-01-30T05:45:50;49.33;;;22.00;;
21777;SDS011;11050;52.222;20.916;2024-01-30T05:48:17;47.27;;;20.47;;
21777;SDS011;11050;52.222;20.916;2024-01-30T05:50:43;45.53;;;21.03;;
21777;SDS011;11050;52.222;20.916;2024-01-30T05:53:10;46.87;;;20.40;;
21777;SDS011;11050;52.222;20.916;2024-01-30T05:55:36;40.07;;;19.80;;
21777;SDS011;11050;52.222;20.916;2024-01-30T05:58:02;43.80;;;19.77;;
21777;SDS011;11050;52.222;20.916;2024-01-30T06:00:28;48.13;;;21.03;;
21777;SDS011;11050;52.222;20.916;2024-01-30T06:02:55;47.00;;;21.33;;
21777;SDS011;11050;52.222;20.916;2024-01-30T06:05:20;43.80;;;21.07;;
21777;SDS011;11050;52.222;20.916;2024-01-30T06:07:46;48.80;;;21.33;;
21777;SDS011;11050;52.222;20.916;2024-01-30T06:10:12;49.53;;;21.83;;
21777;SDS011;11050;52.222;20.916;2024-01-30T06:12:38;46.37;;;20.53;;
21777;SDS011;11050;52.222;20.916;2024-01-30T06:15:04;53.33;;;22.70;;
21777;SDS011;11050;52.222;20.916;2024-01-30T06:17:31;46.33;;;21.83;;
21777;SDS011;11050;52.222;20.916;2024-01-30T06:19:57;53.47;;;24.03;;
21777;SDS011;11050;52.222;20.916;2024-01-30T06:22:23;47.20;;;22.63;;
21777;SDS011;11050;52.222;20.916;2024-01-30T06:24:49;50.97;;;23.20;;
21777;SDS011;11050;52.222;20.916;2024-01-30T06:27:15;52.97;;;22.87;;
21777;SDS011;11050;52.222;20.916;2024-01-30T06:29:41;50.27;;;22.40;;
21777;SDS011;11050;52.222;20.916;2024-01-30T06:32:08;46.27;;;21.60;;
21777;SDS011;11050;52.222;20.916;2024-01-30T06:34:34;47.83;;;21.87;;
21777;SDS011;11050;52.222;20.916;2024-01-30T06:37:00;48.00;;;21.10;;
21777;SDS011;11050;52.222;20.916;2024-01-30T06:39:26;47.93;;;22.30;;
21777;SDS011;11050;52.222;20.916;2024-01-30T06:41:52;44.03;;;21.30;;
21777;SDS011;11050;52.222;20.916;2024-01-30T06:44:18;49.90;;;21.40;;
21777;SDS011;11050;52.222;20.916;2024-01-30T06:46:44;48.10;;;20.73;;
21777;SDS011;11050;52.222;20.916;2024-01-30T06:49:10;42.93;;;19.33;;
21777;SDS011;11050;52.222;20.916;2024-01-30T06:51:35;41.60;;;19.27;;
21777;SDS011;11050;52.222;20.916;2024-01-30T06:54:01;43.47;;;20.77;;
21777;SDS011;11050;52.222;20.916;2024-01-30T06:56:27;46.80;;;20.43;;
21777;SDS011;11050;52.222;20.916;2024-01-30T06:58:53;47.90;;;21.27;;
21777;SDS011;11050;52.222;20.916;2024-01-30T07:01:19;44.07;;;19.90;;
21777;SDS011;11050;52.222;20.916;2024-01-30T07:03:45;44.73;;;20.67;;
21777;SDS011;11050;52.222;20.916;2024-01-30T07:06:11;45.03;;;20.57;;
21777;SDS011;11050;52.222;20.916;2024-01-30T07:08:37;43.57;;;20.20;;
21777;SDS011;11050;52.222;20.916;2024-01-30T07:11:06;41.83;;;19.93;;
21777;SDS011;11050;52.222;20.916;2024-01-30T07:13:33;46.70;;;20.67;;
21777;SDS011;11050;52.222;20.916;2024-01-30T07:16:00;44.03;;;20.27;;
21777;SDS011;11050;52.222;20.916;2024-01-30T07:18:26;43.97;;;20.53;;
21777;SDS011;11050;52.222;20.916;2024-01-30T07:20:51;46.93;;;20.97;;
21777;SDS011;11050;52.222;20.916;2024-01-30T07:23:17;45.40;;;19.77;;
21777;SDS011;11050;52.222;20.916;2024-01-30T07:25:43;42.87;;;19.90;;
21777;SDS011;11050;52.222;20.916;2024-01-30T07:28:10;38.67;;;19.07;;
21777;SDS011;11050;52.222;20.916;2024-01-30T07:30:37;39.93;;;19.13;;
21777;SDS011;11050;52.222;20.916;2024-01-30T07:33:03;37.20;;;18.70;;
21777;SDS011;11050;52.222;20.916;2024-01-30T07:35:29;39.30;;;18.83;;
21777;SDS011;11050;52.222;20.916;2024-01-30T07:37:55;44.50;;;20.47;;
21777;SDS011;11050;52.222;20.916;2024-01-30T07:40:22;37.63;;;19.33;;
21777;SDS011;11050;52.222;20.916;2024-01-30T07:42:49;41.63;;;19.70;;
21777;SDS011;11050;52.222;20.916;2024-01-30T07:45:14;42.30;;;20.43;;
21777;SDS011;11050;52.222;20.916;2024-01-30T07:47:41;43.47;;;20.23;;
21777;SDS011;11050;52.222;20.916;2024-01-30T07:50:07;46.53;;;20.30;;
21777;SDS011;11050;52.222;20.916;2024-01-30T07:52:34;41.07;;;19.67;;
21777;SDS011;11050;52.222;20.916;2024-01-30T07:55:00;41.00;;;19.03;;
21777;SDS011;11050;52.222;20.916;2024-01-30T07:57:25;40.53;;;18.80;;
21777;SDS011;11050;52.222;20.916;2024-01-30T07:59:51;43.57;;;19.53;;
21777;SDS011;11050;52.222;20.916;2024-01-30T08:02:17;38.73;;;18.53;;
21777;SDS011;11050;52.222;20.916;2024-01-30T08:04:43;37.63;;;18.37;;
21777;SDS011;11050;52.222;20.916;2024-01-30T08:07:13;44.67;;;20.83;;
21777;SDS011;11050;52.222;20.916;2024-01-30T08:09:39;39.23;;;18.77;;
21777;SDS011;11050;52.222;20.916;2024-01-30T08:12:05;36.97;;;18.17;;
21777;SDS011;11050;52.222;20.916;2024-01-30T08:14:31;43.57;;;18.57;;
21777;SDS011;11050;52.222;20.916;2024-01-30T08:16:57;39.17;;;19.20;;
21777;SDS011;11050;52.222;20.916;2024-01-30T08:19:22;41.80;;;19.60;;
21777;SDS011;11050;52.222;20.916;2024-01-30T08:21:48;39.03;;;18.73;;
21777;SDS011;11050;52.222;20.916;2024-01-30T08:24:14;37.83;;;18.70;;
21777;SDS011;11050;52.222;20.916;2024-01-30T08:26:39;38.43;;;19.33;;
21777;SDS011;11050;52.222;20.916;2024-01-30T08:29:05;37.17;;;18.17;;
21777;SDS011;11050;52.222;20.916;2024-01-30T08:31:31;39.90;;;18.10;;
21777;SDS011;11050;52.222;20.916;2024-01-30T08:33:57;35.27;;;17.87;;
21777;SDS011;11050;52.222;20.916;2024-01-30T08:36:22;36.50;;;17.33;;
21777;SDS011;11050;52.222;20.916;2024-01-30T08:38:48;33.63;;;16.10;;
21777;SDS011;11050;52.222;20.916;2024-01-30T08:41:14;33.30;;;16.27;;
21777;SDS011;11050;52.222;20.916;2024-01-30T08:43:40;36.70;;;16.03;;
21777;SDS011;11050;52.222;20.916;2024-01-30T08:46:06;32.20;;;14.73;;
21777;SDS011;11050;52.222;20.916;2024-01-30T08:48:31;36.30;;;15.10;;
21777;SDS011;11050;52.222;20.916;2024-01-30T08:50:57;30.57;;;14.33;;
21777;SDS011;11050;52.222;20.916;2024-01-30T08:53:23;25.80;;;13.57;;
21777;SDS011;11050;52.222;20.916;2024-01-30T08:55:49;27.70;;;13.50;;
21777;SDS011;11050;52.222;20.916;2024-01-30T08:58:15;29.17;;;13.70;;
21777;SDS011;11050;52.222;20.916;2024-01-30T09:00:44;29.47;;;13.97;;
21777;SDS011;11050;52.222;20.916;2024-01-30T09:03:09;27.47;;;12.33;;
21777;SDS011;11050;52.222;20.916;2024-01-30T09:05:35;27.23;;;13.77;;
21777;SDS011;11050;52.222;20.916;2024-01-30T09:08:01;25.93;;;12.80;;
21777;SDS011;11050;52.222;20.916;2024-01-30T09:10:27;31.33;;;13.80;;
21777;SDS011;11050;52.222;20.916;2024-01-30T09:12:52;27.13;;;12.63;;
21777;SDS011;11050;52.222;20.916;2024-01-30T09:15:18;32.13;;;13.83;;
21777;SDS011;11050;52.222;20.916;2024-01-30T09:17:44;27.37;;;12.67;;
21777;SDS011;11050;52.222;20.916;2024-01-30T09:20:10;26.97;;;12.80;;
21777;SDS011;11050;52.222;20.916;2024-01-30T09:22:36;25.10;;;12.23;;
21777;SDS011;11050;52.222;20.916;2024-01-30T09:25:02;25.20;;;12.57;;
21777;SDS011;11050;52.222;20.916;2024-01-30T09:27:28;24.57;;;12.10;;
21777;SDS011;11050;52.222;20.916;2024-01-30T09:29:54;23.93;;;12.00;;
21777;SDS011;11050;52.222;20.916;2024-01-30T09:32:19;25.53;;;12.23;;
21777;SDS011;11050;52.222;20.916;2024-01-30T09:34:45;22.90;;;11.30;;
21777;SDS011;11050;52.222;20.916;2024-01-30T09:37:11;24.63;;;11.47;;
21777;SDS011;11050;52.222;20.916;2024-01-30T09:39:37;24.17;;;11.77;;
21777;SDS011;11050;52.222;20.916;2024-01-30T09:44:45;24.37;;;12.50;;
21777;SDS011;11050;52.222;20.916;2024-01-30T09:47:16;27.40;;;12.17;;
21777;SDS011;11050;52.222;20.916;2024-01-30T09:49:43;24.23;;;11.37;;
21777;SDS011;11050;52.222;20.916;2024-01-30T09:52:09;24.40;;;11.73;;
21777;SDS011;11050;52.222;20.916;2024-01-30T09:54:36;25.43;;;12.93;;
21777;SDS011;11050;52.222;20.916;2024-01-30T09:57:03;25.93;;;11.67;;
21777;SDS011;11050;52.222;20.916;2024-01-30T09:59:30;23.53;;;11.70;;
21777;SDS011;11050;52.222;20.916;2024-01-30T10:01:57;23.53;;;10.70;;
21777;SDS011;11050;52.222;20.916;2024-01-30T10:04:22;20.80;;;11.00;;
21777;SDS011;11050;52.222;20.916;2024-01-30T10:06:49;22.87;;;11.37;;
21777;SDS011;11050;52.222;20.916;2024-01-30T10:09:16;22.87;;;11.53;;
21777;SDS011;11050;52.222;20.916;2024-01-30T10:11:41;27.97;;;11.90;;
21777;SDS011;11050;52.222;20.916;2024-01-30T10:14:07;21.17;;;11.27;;
21777;SDS011;11050;52.222;20.916;2024-01-30T10:16:36;24.17;;;10.77;;
21777;SDS011;11050;52.222;20.916;2024-01-30T10:19:02;27.93;;;12.40;;
21777;SDS011;11050;52.222;20.916;2024-01-30T10:21:28;23.37;;;12.03;;
21777;SDS011;11050;52.222;20.916;2024-01-30T10:23:55;27.20;;;11.67;;
21777;SDS011;11050;52.222;20.916;2024-01-30T10:26:21;23.60;;;11.27;;
21777;SDS011;11050;52.222;20.916;2024-01-30T10:28:47;22.60;;;11.00;;
21777;SDS011;11050;52.222;20.916;2024-01-30T10:31:17;21.67;;;11.87;;
21777;SDS011;11050;52.222;20.916;2024-01-30T10:33:43;25.23;;;12.20;;
21777;SDS011;11050;52.222;20.916;2024-01-30T10:36:10;23.50;;;11.70;;
21777;SDS011;11050;52.222;20.916;2024-01-30T10:38:42;25.93;;;11.57;;
21777;SDS011;11050;52.222;20.916;2024-01-30T10:41:11;23.63;;;12.10;;
21777;SDS011;11050;52.222;20.916;2024-01-30T10:43:46;26.30;;;11.60;;
21777;SDS011;11050;52.222;20.916;2024-01-30T10:46:28;23.80;;;12.43;;
21777;SDS011;11050;52.222;20.916;2024-01-30T10:48:57;22.23;;;12.53;;
21777;SDS011;11050;52.222;20.916;2024-01-30T10:51:25;26.63;;;12.87;;
21777;SDS011;11050;52.222;20.916;2024-01-30T10:53:52;24.63;;;12.03;;
21777;SDS011;11050;52.222;20.916;2024-01-30T10:56:21;27.47;;;12.20;;
21777;SDS011;11050;52.222;20.916;2024-01-30T10:58:49;19.13;;;10.70;;
21777;SDS011;11050;52.222;20.916;2024-01-30T11:01:20;22.53;;;11.77;;
21777;SDS011;11050;52.222;20.916;2024-01-30T11:03:51;24.50;;;11.43;;
21777;SDS011;11050;52.222;20.916;2024-01-30T11:06:18;26.93;;;12.33;;
21777;SDS011;11050;52.222;20.916;2024-01-30T11:09:03;20.13;;;11.17;;
21777;SDS011;11050;52.222;20.916;2024-01-30T11:11:50;23.67;;;11.50;;
21777;SDS011;11050;52.222;20.916;2024-01-30T11:14:24;21.87;;;11.73;;
21777;SDS011;11050;52.222;20.916;2024-01-30T11:16:58;23.40;;;11.93;;
21777;SDS011;11050;52.222;20.916;2024-01-30T11:19:25;21.83;;;11.83;;
21777;SDS011;11050;52.222;20.916;2024-01-30T11:21:54;19.63;;;11.50;;
21777;SDS011;11050;52.222;20.916;2024-01-30T11:24:22;20.57;;;11.60;;
21777;SDS011;11050;52.222;20.916;2024-01-30T11:26:49;20.73;;;11.73;;
21777;SDS011;11050;52.222;20.916;2024-01-30T11:29:25;21.70;;;11.70;;
21777;SDS011;11050;52.222;20.916;2024-01-30T11:31:53;20.43;;;11.37;;
21777;SDS011;11050;52.222;20.916;2024-01-30T11:34:21;23.67;;;11.60;;
21777;SDS011;11050;52.222;20.916;2024-01-30T11:36:54;23.10;;;12.48;;
21777;SDS011;11050;52.222;20.916;2024-01-30T11:39:24;25.50;;;12.45;;
21777;SDS011;11050;52.222;20.916;2024-01-30T11:41:54;22.40;;;12.30;;
21777;SDS011;11050;52.222;20.916;2024-01-30T11:44:20;22.58;;;11.65;;
21777;SDS011;11050;52.222;20.916;2024-01-30T11:46:50;20.70;;;11.63;;
21777;SDS011;11050;52.222;20.916;2024-01-30T11:49:17;21.15;;;10.93;;
21777;SDS011;11050;52.222;20.916;2024-01-30T11:51:47;25.45;;;11.90;;
21777;SDS011;11050;52.222;20.916;2024-01-30T11:54:14;19.63;;;11.82;;
21777;SDS011;11050;52.222;20.916;2024-01-30T11:56:43;21.70;;;12.20;;
21777;SDS011;11050;52.222;20.916;2024-01-30T11:59:09;20.83;;;11.73;;
21777;SDS011;11050;52.222;20.916;2024-01-30T12:01:35;19.80;;;11.98;;
21777;SDS011;11050;52.222;20.916;2024-01-30T12:04:01;19.40;;;11.95;;
21777;SDS011;11050;52.222;20.916;2024-01-30T12:06:28;20.15;;;11.73;;
21777;SDS011;11050;52.222;20.916;2024-01-30T12:11:53;21.88;;;12.50;;
21777;SDS011;11050;52.222;20.916;2024-01-30T12:14:18;20.15;;;12.77;;
21777;SDS011;11050;52.222;20.916;2024-01-30T12:16:48;25.20;;;13.43;;
21777;SDS011;11050;52.222;20.916;2024-01-30T12:19:22;22.50;;;14.25;;
21777;SDS011;11050;52.222;20.916;2024-01-30T12:21:59;22.38;;;13.30;;
21777;SDS011;11050;52.222;20.916;2024-01-30T12:24:27;25.35;;;13.35;;
21777;SDS011;11050;52.222;20.916;2024-01-30T12:26:57;22.33;;;13.55;;
21777;SDS011;11050;52.222;20.916;2024-01-30T12:29:24;21.95;;;13.30;;
21777;SDS011;11050;52.222;20.916;2024-01-30T12:31:52;18.30;;;12.48;;
21777;SDS011;11050;52.222;20.916;2024-01-30T12:34:19;20.77;;;13.35;;
21777;SDS011;11050;52.222;20.916;2024-01-30T12:36:49;21.45;;;13.60;;
21777;SDS011;11050;52.222;20.916;2024-01-30T12:39:15;22.50;;;13.23;;
21777;SDS011;11050;52.222;20.916;2024-01-30T12:41:41;22.33;;;12.55;;
21777;SDS011;11050;52.222;20.916;2024-01-30T12:44:07;21.85;;;12.38;;
21777;SDS011;11050;52.222;20.916;2024-01-30T12:46:36;22.17;;;13.68;;
21777;SDS011;11050;52.222;20.916;2024-01-30T12:49:02;24.30;;;14.05;;
21777;SDS011;11050;52.222;20.916;2024-01-30T12:51:28;24.20;;;14.10;;
21777;SDS011;11050;52.222;20.916;2024-01-30T12:53:53;24.15;;;14.00;;
21777;SDS011;11050;52.222;20.916;2024-01-30T12:56:19;22.05;;;14.00;;
21777;SDS011;11050;52.222;20.916;2024-01-30T12:58:45;23.70;;;13.98;;
21777;SDS011;11050;52.222;20.916;2024-01-30T13:01:11;21.52;;;13.07;;
21777;SDS011;11050;52.222;20.916;2024-01-30T13:03:37;20.35;;;12.82;;
21777;SDS011;11050;52.222;20.916;2024-01-30T13:06:03;25.17;;;13.68;;
21777;SDS011;11050;52.222;20.916;2024-01-30T13:08:29;21.92;;;13.38;;
21777;SDS011;11050;52.222;20.916;2024-01-30T13:10:55;23.45;;;13.45;;
21777;SDS011;11050;52.222;20.916;2024-01-30T13:13:20;22.75;;;13.57;;
21777;SDS011;11050;52.222;20.916;2024-01-30T13:15:47;23.15;;;13.63;;
21777;SDS011;11050;52.222;20.916;2024-01-30T13:18:13;20.42;;;13.40;;
21777;SDS011;11050;52.222;20.916;2024-01-30T13:20:39;21.30;;;13.13;;
21777;SDS011;11050;52.222;20.916;2024-01-30T13:23:05;25.35;;;13.73;;
21777;SDS011;11050;52.222;20.916;2024-01-30T13:25:30;20.85;;;13.15;;
21777;SDS011;11050;52.222;20.916;2024-01-30T13:27:56;23.08;;;13.70;;
21777;SDS011;11050;52.222;20.916;2024-01-30T13:30:22;28.13;;;13.93;;
21777;SDS011;11050;52.222;20.916;2024-01-30T13:32:48;23.38;;;13.73;;
21777;SDS011;11050;52.222;20.916;2024-01-30T13:35:13;21.75;;;13.55;;
21777;SDS011;11050;52.222;20.916;2024-01-30T13:37:39;25.25;;;14.35;;
21777;SDS011;11050;52.222;20.916;2024-01-30T13:40:07;22.30;;;13.68;;
21777;SDS011;11050;52.222;20.916;2024-01-30T13:42:34;21.50;;;13.45;;
21777;SDS011;11050;52.222;20.916;2024-01-30T13:45:00;20.92;;;13.20;;
21777;SDS011;11050;52.222;20.916;2024-01-30T13:47:26;23.63;;;14.27;;
21777;SDS011;11050;52.222;20.916;2024-01-30T13:49:52;24.58;;;14.50;;
21777;SDS011;11050;52.222;20.916;2024-01-30T13:52:18;21.52;;;13.80;;
21777;SDS011;11050;52.222;20.916;2024-01-30T13:54:44;23.65;;;13.82;;
21777;SDS011;11050;52.222;20.916;2024-01-30T13:57:09;24.13;;;13.40;;
21777;SDS011;11050;52.222;20.916;2024-01-30T13:59:37;22.90;;;13.57;;
21777;SDS011;11050;52.222;20.916;2024-01-30T14:02:03;24.52;;;13.82;;
21777;SDS011;11050;52.222;20.916;2024-01-30T14:04:29;22.85;;;13.75;;
21777;SDS011;11050;52.222;20.916;2024-01-30T14:06:55;20.23;;;13.77;;
21777;SDS011;11050;52.222;20.916;2024-01-30T14:09:20;25.00;;;14.73;;
21777;SDS011;11050;52.222;20.916;2024-01-30T14:11:46;28.83;;;14.45;;